sensor_id;sensor_type;location;lat;lon;timestamp;P1;durP1;ratioP1;P2;durP2;ratioP2
17987;SDS011;9119;50.932;5.342;2022-09-20T00:00:05;9.57;;;3.33;;
17987;SDS011;9119;50.932;5.342;2022-09-20T00:02:31;9.33;;;3.33;;
17987;SDS011;9119;50.932;5.342;2022-09-20T00:04:56;10.47;;;3.30;;
17987;SDS011;9119;50.932;5.342;2022-09-20T00:07:22;13.17;;;3.80;;
17987;SDS011;9119;50.932;5.342;2022-09-20T00:09:48;14.63;;;3.60;;
17987;SDS011;9119;50.932;5.342;2022-09-20T00:12:14;9.40;;;3.13;;
17987;SDS011;9119;50.932;5.342;2022-09-20T00:14:42;8.70;;;3.10;;
17987;SDS011;9119;50.932;5.342;2022-09-20T00:17:08;6.20;;;3.00;;
17987;SDS011;9119;50.932;5.342;2022-09-20T00:19:34;10.03;;;3.43;;
17987;SDS011;9119;50.932;5.342;2022-09-20T00:22:00;8.50;;;3.20;;
17987;SDS011;9119;50.932;5.342;2022-09-20T00:24:25;13.87;;;3.57;;
17987;SDS011;9119;50.932;5.342;2022-09-20T00:26:51;12.17;;;3.57;;
17987;SDS011;9119;50.932;5.342;2022-09-20T00:29:16;16.57;;;4.30;;
17987;SDS011;9119;50.932;5.342;2022-09-20T00:31:42;11.60;;;4.53;;
17987;SDS011;9119;50.932;5.342;2022-09-20T00:34:08;11.60;;;4.87;;
17987;SDS011;9119;50.932;5.342;2022-09-20T00:36:53;9.10;;;3.67;;
17987;SDS011;9119;50.932;5.342;2022-09-20T00:39:19;9.23;;;3.70;;
17987;SDS011;9119;50.932;5.342;2022-09-20T00:41:45;15.20;;;3.67;;
17987;SDS011;9119;50.932;5.342;2022-09-20T00:47:14;14.57;;;5.07;;
17987;SDS011;9119;50.932;5.342;2022-09-20T00:49:48;7.47;;;3.40;;
17987;SDS011;9119;50.932;5.342;2022-09-20T00:52:17;15.73;;;4.43;;
17987;SDS011;9119;50.932;5.342;2022-09-20T00:54:43;13.50;;;3.70;;
17987;SDS011;9119;50.932;5.342;2022-09-20T00:57:09;7.23;;;3.30;;
17987;SDS011;9119;50.932;5.342;2022-09-20T00:59:36;13.23;;;3.60;;
17987;SDS011;9119;50.932;5.342;2022-09-20T01:02:07;13.57;;;3.27;;
17987;SDS011;9119;50.932;5.342;2022-09-20T01:04:36;11.33;;;3.00;;
17987;SDS011;9119;50.932;5.342;2022-09-20T01:07:06;14.07;;;3.10;;
17987;SDS011;9119;50.932;5.342;2022-09-20T01:09:33;13.57;;;3.53;;
17987;SDS011;9119;50.932;5.342;2022-09-20T01:12:00;9.30;;;3.10;;
17987;SDS011;9119;50.932;5.342;2022-09-20T01:14:33;9.23;;;2.77;;
17987;SDS011;9119;50.932;5.342;2022-09-20T01:17:01;14.30;;;3.43;;
17987;SDS011;9119;50.932;5.342;2022-09-20T01:19:46;9.10;;;3.30;;
17987;SDS011;9119;50.932;5.342;2022-09-20T01:28:07;6.20;;;3.30;;
17987;SDS011;9119;50.932;5.342;2022-09-20T01:30:36;10.63;;;3.83;;
17987;SDS011;9119;50.932;5.342;2022-09-20T01:33:20;7.83;;;3.20;;
17987;SDS011;9119;50.932;5.342;2022-09-20T01:35:55;14.03;;;3.80;;
17987;SDS011;9119;50.932;5.342;2022-09-20T01:44:11;16.03;;;3.97;;
17987;SDS011;9119;50.932;5.342;2022-09-20T01:46:46;6.50;;;4.10;;
17987;SDS011;9119;50.932;5.342;2022-09-20T02:05:42;11.93;;;4.00;;
17987;SDS011;9119;50.932;5.342;2022-09-20T02:11:14;8.47;;;3.47;;
17987;SDS011;9119;50.932;5.342;2022-09-20T02:22:18;10.77;;;3.80;;
17987;SDS011;9119;50.932;5.342;2022-09-20T02:28:04;13.33;;;3.60;;
17987;SDS011;9119;50.932;5.342;2022-09-20T02:36:19;11.87;;;3.17;;
17987;SDS011;9119;50.932;5.342;2022-09-20T02:39:19;8.97;;;3.00;;
17987;SDS011;9119;50.932;5.342;2022-09-20T02:41:54;7.10;;;3.10;;
17987;SDS011;9119;50.932;5.342;2022-09-20T02:44:44;10.47;;;3.60;;
17987;SDS011;9119;50.932;5.342;2022-09-20T02:52:24;22.43;;;3.80;;
17987;SDS011;9119;50.932;5.342;2022-09-20T02:57:54;11.40;;;3.30;;
17987;SDS011;9119;50.932;5.342;2022-09-20T03:00:31;13.40;;;3.70;;
17987;SDS011;9119;50.932;5.342;2022-09-20T03:06:23;9.43;;;2.80;;
17987;SDS011;9119;50.932;5.342;2022-09-20T03:17:34;6.33;;;2.60;;
17987;SDS011;9119;50.932;5.342;2022-09-20T03:20:19;13.83;;;3.23;;
17987;SDS011;9119;50.932;5.342;2022-09-20T03:23:23;15.60;;;3.60;;
17987;SDS011;9119;50.932;5.342;2022-09-20T03:25:55;13.47;;;2.90;;
17987;SDS011;9119;50.932;5.342;2022-09-20T03:28:34;8.87;;;2.30;;
17987;SDS011;9119;50.932;5.342;2022-09-20T03:34:15;10.17;;;2.87;;
17987;SDS011;9119;50.932;5.342;2022-09-20T03:39:44;9.63;;;2.67;;
17987;SDS011;9119;50.932;5.342;2022-09-20T03:42:33;12.23;;;2.87;;
17987;SDS011;9119;50.932;5.342;2022-09-20T03:58:29;14.03;;;2.93;;
17987;SDS011;9119;50.932;5.342;2022-09-20T04:12:06;8.73;;;3.17;;
17987;SDS011;9119;50.932;5.342;2022-09-20T04:15:09;18.87;;;3.03;;
17987;SDS011;9119;50.932;5.342;2022-09-20T04:18:34;9.17;;;3.53;;
17987;SDS011;9119;50.932;5.342;2022-09-20T04:26:35;9.50;;;3.40;;
17987;SDS011;9119;50.932;5.342;2022-09-20T04:29:21;6.53;;;3.50;;
17987;SDS011;9119;50.932;5.342;2022-09-20T04:35:32;14.27;;;4.60;;
17987;SDS011;9119;50.932;5.342;2022-09-20T04:37:59;13.90;;;4.10;;
17987;SDS011;9119;50.932;5.342;2022-09-20T04:54:28;13.27;;;4.73;;
17987;SDS011;9119;50.932;5.342;2022-09-20T05:00:19;11.70;;;4.73;;
17987;SDS011;9119;50.932;5.342;2022-09-20T05:03:09;10.00;;;4.40;;
17987;SDS011;9119;50.932;5.342;2022-09-20T05:17:42;15.17;;;4.47;;
17987;SDS011;9119;50.932;5.342;2022-09-20T05:20:39;16.47;;;5.23;;
17987;SDS011;9119;50.932;5.342;2022-09-20T05:26:36;17.67;;;5.47;;
17987;SDS011;9119;50.932;5.342;2022-09-20T05:37:27;17.00;;;5.70;;
17987;SDS011;9119;50.932;5.342;2022-09-20T05:43:08;15.73;;;4.70;;
17987;SDS011;9119;50.932;5.342;2022-09-20T05:48:39;14.30;;;5.23;;
17987;SDS011;9119;50.932;5.342;2022-09-20T06:03:40;16.33;;;5.70;;
17987;SDS011;9119;50.932;5.342;2022-09-20T06:08:25;11.70;;;5.00;;
17987;SDS011;9119;50.932;5.342;2022-09-20T06:13:34;12.57;;;5.07;;
17987;SDS011;9119;50.932;5.342;2022-09-20T06:19:24;12.43;;;4.53;;
17987;SDS011;9119;50.932;5.342;2022-09-20T06:21:59;14.07;;;4.57;;
17987;SDS011;9119;50.932;5.342;2022-09-20T06:24:48;13.00;;;4.60;;
17987;SDS011;9119;50.932;5.342;2022-09-20T06:28:00;17.10;;;4.60;;
17987;SDS011;9119;50.932;5.342;2022-09-20T06:30:21;15.10;;;4.80;;
17987;SDS011;9119;50.932;5.342;2022-09-20T06:32:56;12.13;;;4.87;;
17987;SDS011;9119;50.932;5.342;2022-09-20T06:35:41;13.63;;;5.23;;
17987;SDS011;9119;50.932;5.342;2022-09-20T06:41:16;16.17;;;4.93;;
17987;SDS011;9119;50.932;5.342;2022-09-20T06:43:58;16.27;;;5.03;;
17987;SDS011;9119;50.932;5.342;2022-09-20T06:46:29;12.20;;;5.27;;
17987;SDS011;9119;50.932;5.342;2022-09-20T06:48:56;15.10;;;5.47;;
17987;SDS011;9119;50.932;5.342;2022-09-20T06:51:23;13.57;;;4.93;;
17987;SDS011;9119;50.932;5.342;2022-09-20T06:53:51;10.80;;;4.80;;
17987;SDS011;9119;50.932;5.342;2022-09-20T06:56:20;13.13;;;4.83;;
17987;SDS011;9119;50.932;5.342;2022-09-20T06:58:49;14.90;;;5.77;;
17987;SDS011;9119;50.932;5.342;2022-09-20T07:01:16;17.87;;;4.80;;
17987;SDS011;9119;50.932;5.342;2022-09-20T07:03:41;13.43;;;5.00;;
17987;SDS011;9119;50.932;5.342;2022-09-20T07:06:07;13.57;;;4.73;;
17987;SDS011;9119;50.932;5.342;2022-09-20T07:08:34;15.63;;;4.37;;
17987;SDS011;9119;50.932;5.342;2022-09-20T07:11:03;14.67;;;4.20;;
17987;SDS011;9119;50.932;5.342;2022-09-20T07:13:30;9.20;;;3.60;;
17987;SDS011;9119;50.932;5.342;2022-09-20T07:15:59;12.67;;;3.97;;
17987;SDS011;9119;50.932;5.342;2022-09-20T07:18:29;8.97;;;4.23;;
17987;SDS011;9119;50.932;5.342;2022-09-20T07:20:56;12.30;;;4.00;;
17987;SDS011;9119;50.932;5.342;2022-09-20T07:23:25;16.33;;;4.63;;
17987;SDS011;9119;50.932;5.342;2022-09-20T07:25:52;8.97;;;4.10;;
17987;SDS011;9119;50.932;5.342;2022-09-20T07:28:18;12.27;;;4.23;;
17987;SDS011;9119;50.932;5.342;2022-09-20T07:30:45;10.57;;;4.53;;
17987;SDS011;9119;50.932;5.342;2022-09-20T07:33:11;12.50;;;4.33;;
17987;SDS011;9119;50.932;5.342;2022-09-20T07:35:43;10.93;;;4.10;;
17987;SDS011;9119;50.932;5.342;2022-09-20T07:38:10;13.93;;;4.47;;
17987;SDS011;9119;50.932;5.342;2022-09-20T07:40:36;13.70;;;4.37;;
17987;SDS011;9119;50.932;5.342;2022-09-20T07:43:02;13.07;;;4.43;;
17987;SDS011;9119;50.932;5.342;2022-09-20T07:45:27;9.73;;;4.10;;
17987;SDS011;9119;50.932;5.342;2022-09-20T07:47:56;9.20;;;4.57;;
17987;SDS011;9119;50.932;5.342;2022-09-20T07:50:22;13.77;;;3.90;;
17987;SDS011;9119;50.932;5.342;2022-09-20T07:52:48;11.03;;;4.60;;
17987;SDS011;9119;50.932;5.342;2022-09-20T07:55:14;16.30;;;4.90;;
17987;SDS011;9119;50.932;5.342;2022-09-20T07:57:40;17.80;;;5.23;;
17987;SDS011;9119;50.932;5.342;2022-09-20T08:00:07;15.87;;;4.60;;
17987;SDS011;9119;50.932;5.342;2022-09-20T08:02:33;11.13;;;4.30;;
17987;SDS011;9119;50.932;5.342;2022-09-20T08:04:59;12.97;;;5.13;;
17987;SDS011;9119;50.932;5.342;2022-09-20T08:07:25;15.43;;;4.53;;
17987;SDS011;9119;50.932;5.342;2022-09-20T08:09:54;14.63;;;4.90;;
17987;SDS011;9119;50.932;5.342;2022-09-20T08:12:26;8.77;;;4.17;;
17987;SDS011;9119;50.932;5.342;2022-09-20T08:14:51;15.70;;;4.27;;
17987;SDS011;9119;50.932;5.342;2022-09-20T08:17:17;10.20;;;4.40;;
17987;SDS011;9119;50.932;5.342;2022-09-20T08:19:43;12.23;;;4.67;;
17987;SDS011;9119;50.932;5.342;2022-09-20T08:22:09;11.60;;;4.60;;
17987;SDS011;9119;50.932;5.342;2022-09-20T08:24:36;8.33;;;3.43;;
17987;SDS011;9119;50.932;5.342;2022-09-20T08:27:03;13.07;;;3.80;;
17987;SDS011;9119;50.932;5.342;2022-09-20T08:29:29;7.87;;;3.43;;
17987;SDS011;9119;50.932;5.342;2022-09-20T08:31:54;10.23;;;3.77;;
17987;SDS011;9119;50.932;5.342;2022-09-20T08:34:22;5.97;;;3.37;;
17987;SDS011;9119;50.932;5.342;2022-09-20T08:36:48;6.67;;;3.53;;
17987;SDS011;9119;50.932;5.342;2022-09-20T08:39:16;14.27;;;4.37;;
17987;SDS011;9119;50.932;5.342;2022-09-20T08:41:45;10.07;;;3.77;;
17987;SDS011;9119;50.932;5.342;2022-09-20T08:44:28;8.20;;;3.43;;
17987;SDS011;9119;50.932;5.342;2022-09-20T08:49:41;8.40;;;2.37;;
17987;SDS011;9119;50.932;5.342;2022-09-20T08:52:10;13.83;;;3.33;;
17987;SDS011;9119;50.932;5.342;2022-09-20T08:54:44;10.67;;;3.70;;
17987;SDS011;9119;50.932;5.342;2022-09-20T08:57:11;11.77;;;3.27;;
17987;SDS011;9119;50.932;5.342;2022-09-20T08:59:41;10.63;;;3.67;;
17987;SDS011;9119;50.932;5.342;2022-09-20T09:02:16;11.17;;;3.50;;
17987;SDS011;9119;50.932;5.342;2022-09-20T09:04:44;6.63;;;3.63;;
17987;SDS011;9119;50.932;5.342;2022-09-20T09:07:13;11.47;;;3.63;;
17987;SDS011;9119;50.932;5.342;2022-09-20T09:09:42;10.83;;;3.73;;
17987;SDS011;9119;50.932;5.342;2022-09-20T09:12:18;9.37;;;3.60;;
17987;SDS011;9119;50.932;5.342;2022-09-20T09:14:50;14.70;;;3.27;;
17987;SDS011;9119;50.932;5.342;2022-09-20T09:19:57;13.87;;;3.90;;
17987;SDS011;9119;50.932;5.342;2022-09-20T09:27:48;6.70;;;2.73;;
17987;SDS011;9119;50.932;5.342;2022-09-20T09:30:26;5.63;;;2.30;;
17987;SDS011;9119;50.932;5.342;2022-09-20T09:35:38;8.63;;;2.07;;
17987;SDS011;9119;50.932;5.342;2022-09-20T09:38:08;11.70;;;2.27;;
17987;SDS011;9119;50.932;5.342;2022-09-20T09:40:48;10.57;;;2.50;;
17987;SDS011;9119;50.932;5.342;2022-09-20T09:43:19;10.20;;;2.20;;
17987;SDS011;9119;50.932;5.342;2022-09-20T09:45:52;6.87;;;1.60;;
17987;SDS011;9119;50.932;5.342;2022-09-20T09:48:22;3.77;;;1.43;;
17987;SDS011;9119;50.932;5.342;2022-09-20T09:50:49;6.80;;;1.60;;
17987;SDS011;9119;50.932;5.342;2022-09-20T09:53:30;7.70;;;1.97;;
17987;SDS011;9119;50.932;5.342;2022-09-20T10:01:57;8.67;;;1.67;;
17987;SDS011;9119;50.932;5.342;2022-09-20T10:29:26;6.73;;;1.60;;
17987;SDS011;9119;50.932;5.342;2022-09-20T10:34:54;10.47;;;4.77;;
17987;SDS011;9119;50.932;5.342;2022-09-20T10:43:12;6.53;;;1.83;;
17987;SDS011;9119;50.932;5.342;2022-09-20T10:45:55;4.47;;;1.37;;
17987;SDS011;9119;50.932;5.342;2022-09-20T10:48:39;8.07;;;1.60;;
17987;SDS011;9119;50.932;5.342;2022-09-20T10:53:59;5.33;;;1.57;;
17987;SDS011;9119;50.932;5.342;2022-09-20T10:56:46;7.80;;;1.33;;
17987;SDS011;9119;50.932;5.342;2022-09-20T10:59:29;6.17;;;1.20;;
17987;SDS011;9119;50.932;5.342;2022-09-20T11:02:13;15.67;;;2.43;;
17987;SDS011;9119;50.932;5.342;2022-09-20T11:10:15;9.20;;;1.30;;
17987;SDS011;9119;50.932;5.342;2022-09-20T11:12:57;8.93;;;1.60;;
17987;SDS011;9119;50.932;5.342;2022-09-20T11:15:34;7.50;;;1.47;;
17987;SDS011;9119;50.932;5.342;2022-09-20T11:18:22;7.90;;;1.50;;
17987;SDS011;9119;50.932;5.342;2022-09-20T11:21:30;7.73;;;1.90;;
17987;SDS011;9119;50.932;5.342;2022-09-20T11:23:59;8.27;;;1.90;;
17987;SDS011;9119;50.932;5.342;2022-09-20T11:32:21;6.47;;;1.40;;
17987;SDS011;9119;50.932;5.342;2022-09-20T11:34:54;7.97;;;1.47;;
17987;SDS011;9119;50.932;5.342;2022-09-20T11:37:26;8.67;;;1.40;;
17987;SDS011;9119;50.932;5.342;2022-09-20T11:39:59;7.07;;;1.70;;
17987;SDS011;9119;50.932;5.342;2022-09-20T11:42:36;9.80;;;1.50;;
17987;SDS011;9119;50.932;5.342;2022-09-20T11:45:05;4.13;;;1.23;;
17987;SDS011;9119;50.932;5.342;2022-09-20T11:47:37;7.90;;;1.50;;
17987;SDS011;9119;50.932;5.342;2022-09-20T11:52:52;6.17;;;1.33;;
17987;SDS011;9119;50.932;5.342;2022-09-20T11:58:13;5.03;;;1.20;;
17987;SDS011;9119;50.932;5.342;2022-09-20T12:00:41;4.93;;;1.40;;
17987;SDS011;9119;50.932;5.342;2022-09-20T12:06:02;7.77;;;1.57;;
17987;SDS011;9119;50.932;5.342;2022-09-20T12:08:36;8.20;;;1.77;;
17987;SDS011;9119;50.932;5.342;2022-09-20T12:11:09;7.23;;;1.80;;
17987;SDS011;9119;50.932;5.342;2022-09-20T12:13:38;3.97;;;1.20;;
17987;SDS011;9119;50.932;5.342;2022-09-20T12:21:18;6.63;;;1.17;;
17987;SDS011;9119;50.932;5.342;2022-09-20T12:23:46;5.10;;;1.60;;
17987;SDS011;9119;50.932;5.342;2022-09-20T12:28:52;6.10;;;1.33;;
17987;SDS011;9119;50.932;5.342;2022-09-20T12:39:26;8.57;;;1.40;;
17987;SDS011;9119;50.932;5.342;2022-09-20T12:44:41;8.87;;;1.90;;
17987;SDS011;9119;50.932;5.342;2022-09-20T12:49:50;5.80;;;1.60;;
17987;SDS011;9119;50.932;5.342;2022-09-20T12:52:38;10.17;;;2.00;;
17987;SDS011;9119;50.932;5.342;2022-09-20T13:03:32;10.00;;;1.63;;
17987;SDS011;9119;50.932;5.342;2022-09-20T13:09:13;8.27;;;2.20;;
17987;SDS011;9119;50.932;5.342;2022-09-20T13:11:37;7.90;;;2.00;;
17987;SDS011;9119;50.932;5.342;2022-09-20T13:16:50;7.07;;;1.63;;
17987;SDS011;9119;50.932;5.342;2022-09-20T13:21:55;9.37;;;1.70;;
17987;SDS011;9119;50.932;5.342;2022-09-20T13:24:27;5.97;;;1.77;;
17987;SDS011;9119;50.932;5.342;2022-09-20T13:27:01;5.97;;;1.87;;
17987;SDS011;9119;50.932;5.342;2022-09-20T13:35:05;5.27;;;1.90;;
17987;SDS011;9119;50.932;5.342;2022-09-20T13:37:33;7.93;;;2.40;;
17987;SDS011;9119;50.932;5.342;2022-09-20T13:40:25;6.07;;;1.70;;
17987;SDS011;9119;50.932;5.342;2022-09-20T13:43:14;6.53;;;2.17;;
17987;SDS011;9119;50.932;5.342;2022-09-20T13:45:55;9.83;;;1.87;;
17987;SDS011;9119;50.932;5.342;2022-09-20T13:48:23;5.50;;;1.30;;
17987;SDS011;9119;50.932;5.342;2022-09-20T13:50:53;6.20;;;2.17;;
17987;SDS011;9119;50.932;5.342;2022-09-20T13:53:20;8.90;;;2.20;;
17987;SDS011;9119;50.932;5.342;2022-09-20T13:55:47;7.27;;;1.70;;
17987;SDS011;9119;50.932;5.342;2022-09-20T13:58:18;5.90;;;1.97;;
17987;SDS011;9119;50.932;5.342;2022-09-20T14:00:53;10.03;;;2.00;;
17987;SDS011;9119;50.932;5.342;2022-09-20T14:03:27;13.07;;;2.07;;
17987;SDS011;9119;50.932;5.342;2022-09-20T14:06:05;7.27;;;2.30;;
17987;SDS011;9119;50.932;5.342;2022-09-20T14:11:24;5.17;;;2.20;;
17987;SDS011;9119;50.932;5.342;2022-09-20T14:13:53;14.30;;;2.80;;
17987;SDS011;9119;50.932;5.342;2022-09-20T14:16:21;9.80;;;2.40;;
17987;SDS011;9119;50.932;5.342;2022-09-20T14:18:51;10.67;;;2.17;;
17987;SDS011;9119;50.932;5.342;2022-09-20T14:21:22;8.47;;;2.07;;
17987;SDS011;9119;50.932;5.342;2022-09-20T14:23:59;6.77;;;2.40;;
17987;SDS011;9119;50.932;5.342;2022-09-20T14:29:51;11.37;;;2.50;;
17987;SDS011;9119;50.932;5.342;2022-09-20T14:32:23;10.33;;;2.10;;
17987;SDS011;9119;50.932;5.342;2022-09-20T14:35:11;13.20;;;3.03;;
17987;SDS011;9119;50.932;5.342;2022-09-20T14:40:17;10.27;;;2.50;;
17987;SDS011;9119;50.932;5.342;2022-09-20T14:43:04;8.77;;;2.43;;
17987;SDS011;9119;50.932;5.342;2022-09-20T14:45:34;8.87;;;2.17;;
17987;SDS011;9119;50.932;5.342;2022-09-20T14:50:42;8.63;;;2.50;;
17987;SDS011;9119;50.932;5.342;2022-09-20T14:55:59;7.97;;;2.90;;
17987;SDS011;9119;50.932;5.342;2022-09-20T14:58:31;9.77;;;2.93;;
17987;SDS011;9119;50.932;5.342;2022-09-20T15:01:02;13.67;;;2.23;;
17987;SDS011;9119;50.932;5.342;2022-09-20T15:03:41;8.90;;;2.83;;
17987;SDS011;9119;50.932;5.342;2022-09-20T15:06:10;12.27;;;2.50;;
17987;SDS011;9119;50.932;5.342;2022-09-20T15:08:37;8.77;;;2.40;;
17987;SDS011;9119;50.932;5.342;2022-09-20T15:11:04;7.10;;;2.20;;
17987;SDS011;9119;50.932;5.342;2022-09-20T15:13:30;8.87;;;2.70;;
17987;SDS011;9119;50.932;5.342;2022-09-20T15:15:55;13.40;;;2.30;;
17987;SDS011;9119;50.932;5.342;2022-09-20T15:18:23;36.73;;;12.23;;
17987;SDS011;9119;50.932;5.342;2022-09-20T15:20:51;11.93;;;2.30;;
17987;SDS011;9119;50.932;5.342;2022-09-20T15:23:18;8.03;;;2.00;;
17987;SDS011;9119;50.932;5.342;2022-09-20T15:25:44;6.50;;;1.83;;
17987;SDS011;9119;50.932;5.342;2022-09-20T15:28:13;10.47;;;2.33;;
17987;SDS011;9119;50.932;5.342;2022-09-20T15:30:41;4.27;;;1.70;;
17987;SDS011;9119;50.932;5.342;2022-09-20T15:33:17;9.77;;;2.20;;
17987;SDS011;9119;50.932;5.342;2022-09-20T15:35:44;6.03;;;2.10;;
17987;SDS011;9119;50.932;5.342;2022-09-20T15:38:10;5.83;;;1.97;;
17987;SDS011;9119;50.932;5.342;2022-09-20T15:40:37;7.13;;;2.37;;
17987;SDS011;9119;50.932;5.342;2022-09-20T15:43:04;12.53;;;1.77;;
17987;SDS011;9119;50.932;5.342;2022-09-20T15:45:31;6.23;;;1.50;;
17987;SDS011;9119;50.932;5.342;2022-09-20T15:47:57;10.17;;;2.20;;
17987;SDS011;9119;50.932;5.342;2022-09-20T15:50:24;12.63;;;2.60;;
17987;SDS011;9119;50.932;5.342;2022-09-20T15:52:50;22.80;;;6.43;;
17987;SDS011;9119;50.932;5.342;2022-09-20T15:55:19;10.70;;;2.10;;
17987;SDS011;9119;50.932;5.342;2022-09-20T15:57:45;7.70;;;2.10;;
17987;SDS011;9119;50.932;5.342;2022-09-20T16:00:13;12.27;;;2.17;;
17987;SDS011;9119;50.932;5.342;2022-09-20T16:02:42;11.50;;;2.23;;
17987;SDS011;9119;50.932;5.342;2022-09-20T16:05:08;9.50;;;1.97;;
17987;SDS011;9119;50.932;5.342;2022-09-20T16:07:35;9.47;;;2.10;;
17987;SDS011;9119;50.932;5.342;2022-09-20T16:10:01;8.80;;;2.17;;
17987;SDS011;9119;50.932;5.342;2022-09-20T16:12:27;15.93;;;3.00;;
17987;SDS011;9119;50.932;5.342;2022-09-20T16:14:52;10.27;;;2.67;;
17987;SDS011;9119;50.932;5.342;2022-09-20T16:17:18;9.87;;;2.60;;
17987;SDS011;9119;50.932;5.342;2022-09-20T16:20:04;10.63;;;2.30;;
17987;SDS011;9119;50.932;5.342;2022-09-20T16:22:30;8.23;;;2.00;;
17987;SDS011;9119;50.932;5.342;2022-09-20T16:24:58;18.53;;;3.30;;
17987;SDS011;9119;50.932;5.342;2022-09-20T16:27:25;8.33;;;2.40;;
17987;SDS011;9119;50.932;5.342;2022-09-20T16:29:50;6.63;;;2.27;;
17987;SDS011;9119;50.932;5.342;2022-09-20T16:32:16;14.40;;;2.73;;
17987;SDS011;9119;50.932;5.342;2022-09-20T16:34:42;9.43;;;2.40;;
17987;SDS011;9119;50.932;5.342;2022-09-20T16:37:09;7.83;;;1.93;;
17987;SDS011;9119;50.932;5.342;2022-09-20T16:39:41;9.33;;;1.80;;
17987;SDS011;9119;50.932;5.342;2022-09-20T16:42:09;8.90;;;1.60;;
17987;SDS011;9119;50.932;5.342;2022-09-20T16:44:36;8.20;;;2.43;;
17987;SDS011;9119;50.932;5.342;2022-09-20T16:47:04;8.17;;;2.13;;
17987;SDS011;9119;50.932;5.342;2022-09-20T16:49:33;11.73;;;2.10;;
17987;SDS011;9119;50.932;5.342;2022-09-20T16:52:05;10.77;;;2.20;;
17987;SDS011;9119;50.932;5.342;2022-09-20T16:54:32;9.13;;;2.27;;
17987;SDS011;9119;50.932;5.342;2022-09-20T16:56:58;10.73;;;2.23;;
17987;SDS011;9119;50.932;5.342;2022-09-20T16:59:24;8.20;;;2.00;;
17987;SDS011;9119;50.932;5.342;2022-09-20T17:01:50;9.87;;;2.30;;
17987;SDS011;9119;50.932;5.342;2022-09-20T17:04:19;6.10;;;2.03;;
17987;SDS011;9119;50.932;5.342;2022-09-20T17:06:45;6.97;;;2.40;;
17987;SDS011;9119;50.932;5.342;2022-09-20T17:09:18;8.40;;;2.27;;
17987;SDS011;9119;50.932;5.342;2022-09-20T17:11:46;7.53;;;2.37;;
17987;SDS011;9119;50.932;5.342;2022-09-20T17:14:14;14.47;;;2.23;;
17987;SDS011;9119;50.932;5.342;2022-09-20T17:16:41;11.53;;;1.90;;
17987;SDS011;9119;50.932;5.342;2022-09-20T17:19:11;4.93;;;1.80;;
17987;SDS011;9119;50.932;5.342;2022-09-20T17:21:40;12.07;;;2.00;;
17987;SDS011;9119;50.932;5.342;2022-09-20T17:24:13;13.70;;;2.90;;
17987;SDS011;9119;50.932;5.342;2022-09-20T17:26:41;18.73;;;5.30;;
17987;SDS011;9119;50.932;5.342;2022-09-20T17:29:14;10.27;;;2.53;;
17987;SDS011;9119;50.932;5.342;2022-09-20T17:31:42;9.70;;;2.63;;
17987;SDS011;9119;50.932;5.342;2022-09-20T17:34:13;13.90;;;2.60;;
17987;SDS011;9119;50.932;5.342;2022-09-20T17:36:43;7.93;;;2.27;;
17987;SDS011;9119;50.932;5.342;2022-09-20T17:39:10;8.90;;;3.50;;
17987;SDS011;9119;50.932;5.342;2022-09-20T17:41:41;7.83;;;2.10;;
17987;SDS011;9119;50.932;5.342;2022-09-20T17:44:09;9.93;;;2.30;;
17987;SDS011;9119;50.932;5.342;2022-09-20T17:46:36;9.57;;;2.27;;
17987;SDS011;9119;50.932;5.342;2022-09-20T17:49:08;10.40;;;2.40;;
17987;SDS011;9119;50.932;5.342;2022-09-20T17:51:42;10.70;;;2.47;;
17987;SDS011;9119;50.932;5.342;2022-09-20T17:54:11;12.10;;;2.00;;
17987;SDS011;9119;50.932;5.342;2022-09-20T17:56:38;21.57;;;2.90;;
17987;SDS011;9119;50.932;5.342;2022-09-20T17:59:06;9.37;;;2.70;;
17987;SDS011;9119;50.932;5.342;2022-09-20T18:01:32;10.17;;;2.60;;
17987;SDS011;9119;50.932;5.342;2022-09-20T18:04:00;7.83;;;2.40;;
17987;SDS011;9119;50.932;5.342;2022-09-20T18:08:57;7.40;;;3.13;;
17987;SDS011;9119;50.932;5.342;2022-09-20T18:11:29;10.03;;;2.90;;
17987;SDS011;9119;50.932;5.342;2022-09-20T18:14:02;8.33;;;2.70;;
17987;SDS011;9119;50.932;5.342;2022-09-20T18:16:29;13.43;;;2.90;;
17987;SDS011;9119;50.932;5.342;2022-09-20T18:18:55;7.70;;;2.90;;
17987;SDS011;9119;50.932;5.342;2022-09-20T18:21:24;28.40;;;13.33;;
17987;SDS011;9119;50.932;5.342;2022-09-20T18:23:50;8.00;;;3.83;;
17987;SDS011;9119;50.932;5.342;2022-09-20T18:26:18;8.17;;;3.40;;
17987;SDS011;9119;50.932;5.342;2022-09-20T18:29:10;12.70;;;3.63;;
17987;SDS011;9119;50.932;5.342;2022-09-20T18:31:48;16.53;;;3.70;;
17987;SDS011;9119;50.932;5.342;2022-09-20T18:36:47;15.10;;;3.93;;
17987;SDS011;9119;50.932;5.342;2022-09-20T18:39:21;12.53;;;4.13;;
17987;SDS011;9119;50.932;5.342;2022-09-20T18:41:48;10.03;;;4.03;;
17987;SDS011;9119;50.932;5.342;2022-09-20T18:44:17;13.57;;;4.57;;
17987;SDS011;9119;50.932;5.342;2022-09-20T18:46:44;9.50;;;3.40;;
17987;SDS011;9119;50.932;5.342;2022-09-20T18:49:15;14.00;;;4.30;;
17987;SDS011;9119;50.932;5.342;2022-09-20T18:51:41;11.43;;;4.30;;
17987;SDS011;9119;50.932;5.342;2022-09-20T18:54:11;17.50;;;4.40;;
17987;SDS011;9119;50.932;5.342;2022-09-20T18:56:37;12.80;;;3.43;;
17987;SDS011;9119;50.932;5.342;2022-09-20T18:59:06;13.27;;;4.50;;
17987;SDS011;9119;50.932;5.342;2022-09-20T19:04:19;17.10;;;4.53;;
17987;SDS011;9119;50.932;5.342;2022-09-20T19:07:02;10.23;;;4.10;;
17987;SDS011;9119;50.932;5.342;2022-09-20T19:12:22;12.03;;;4.47;;
17987;SDS011;9119;50.932;5.342;2022-09-20T19:15:35;15.13;;;3.87;;
17987;SDS011;9119;50.932;5.342;2022-09-20T19:26:49;10.60;;;4.60;;
17987;SDS011;9119;50.932;5.342;2022-09-20T19:29:22;15.50;;;5.13;;
17987;SDS011;9119;50.932;5.342;2022-09-20T19:31:51;14.43;;;5.47;;
17987;SDS011;9119;50.932;5.342;2022-09-20T19:34:25;18.93;;;5.57;;
17987;SDS011;9119;50.932;5.342;2022-09-20T19:40:17;22.63;;;6.47;;
17987;SDS011;9119;50.932;5.342;2022-09-20T19:42:32;15.73;;;6.80;;
17987;SDS011;9119;50.932;5.342;2022-09-20T19:50:47;12.13;;;5.03;;
17987;SDS011;9119;50.932;5.342;2022-09-20T19:53:16;11.00;;;4.40;;
17987;SDS011;9119;50.932;5.342;2022-09-20T19:55:47;16.17;;;5.23;;
17987;SDS011;9119;50.932;5.342;2022-09-20T19:58:21;12.00;;;4.80;;
17987;SDS011;9119;50.932;5.342;2022-09-20T20:00:47;12.20;;;4.80;;
17987;SDS011;9119;50.932;5.342;2022-09-20T20:03:14;12.97;;;4.80;;
17987;SDS011;9119;50.932;5.342;2022-09-20T20:06:00;17.83;;;6.00;;
17987;SDS011;9119;50.932;5.342;2022-09-20T20:08:46;12.67;;;5.87;;
17987;SDS011;9119;50.932;5.342;2022-09-20T20:11:39;17.57;;;6.33;;
17987;SDS011;9119;50.932;5.342;2022-09-20T20:14:17;14.00;;;5.87;;
17987;SDS011;9119;50.932;5.342;2022-09-20T20:17:01;22.10;;;5.83;;
17987;SDS011;9119;50.932;5.342;2022-09-20T20:19:39;16.97;;;5.50;;
17987;SDS011;9119;50.932;5.342;2022-09-20T20:24:53;14.23;;;6.90;;
17987;SDS011;9119;50.932;5.342;2022-09-20T20:27:22;15.77;;;6.57;;
17987;SDS011;9119;50.932;5.342;2022-09-20T20:29:50;13.77;;;6.33;;
17987;SDS011;9119;50.932;5.342;2022-09-20T20:32:19;13.87;;;6.17;;
17987;SDS011;9119;50.932;5.342;2022-09-20T20:34:44;15.40;;;7.13;;
17987;SDS011;9119;50.932;5.342;2022-09-20T20:37:11;27.70;;;12.67;;
17987;SDS011;9119;50.932;5.342;2022-09-20T20:39:38;17.20;;;6.27;;
17987;SDS011;9119;50.932;5.342;2022-09-20T20:42:03;20.20;;;6.03;;
17987;SDS011;9119;50.932;5.342;2022-09-20T20:44:30;24.50;;;6.63;;
17987;SDS011;9119;50.932;5.342;2022-09-20T20:46:59;16.90;;;6.67;;
17987;SDS011;9119;50.932;5.342;2022-09-20T20:49:28;16.17;;;6.67;;
17987;SDS011;9119;50.932;5.342;2022-09-20T20:51:54;14.97;;;7.23;;
17987;SDS011;9119;50.932;5.342;2022-09-20T20:54:21;16.63;;;6.33;;
17987;SDS011;9119;50.932;5.342;2022-09-20T20:56:47;15.90;;;6.40;;
17987;SDS011;9119;50.932;5.342;2022-09-20T20:59:13;17.03;;;7.30;;
17987;SDS011;9119;50.932;5.342;2022-09-20T21:01:40;21.10;;;7.63;;
17987;SDS011;9119;50.932;5.342;2022-09-20T21:04:11;17.97;;;7.87;;